createdAt,value
2023-05-16T00:01:00.933Z,6.43
2023-05-16T00:04:03.443Z,7.30
2023-05-16T00:07:05.505Z,6.97
2023-05-16T00:10:07.922Z,6.35
2023-05-16T00:13:09.348Z,8.30
2023-05-16T00:16:13.886Z,6.90
2023-05-16T00:19:15.351Z,7.82
2023-05-16T00:22:17.025Z,7.32
2023-05-16T00:25:18.540Z,8.05
2023-05-16T00:28:19.918Z,7.90
2023-05-16T00:31:22.067Z,7.30
2023-05-16T00:34:23.468Z,8.82
2023-05-16T00:37:24.995Z,9.18
2023-05-16T00:40:27.749Z,7.25
2023-05-16T00:43:29.184Z,8.80
2023-05-16T00:46:31.273Z,8.90
2023-05-16T00:49:32.686Z,8.30
2023-05-16T00:52:35.488Z,8.95
2023-05-16T00:55:37.555Z,8.45
2023-05-16T00:58:39.120Z,9.38
2023-05-16T01:01:41.394Z,10.90
2023-05-16T01:04:43.606Z,10.73
2023-05-16T01:07:45.053Z,10.05
2023-05-16T01:10:53.213Z,10.02
2023-05-16T01:14:09.129Z,8.50
2023-05-16T01:17:20.166Z,9.03
2023-05-16T01:20:32.795Z,9.23
2023-05-16T01:23:47.021Z,9.73
2023-05-16T01:26:49.929Z,9.35
2023-05-16T01:29:55.564Z,8.07
2023-05-16T01:32:56.934Z,8.23
2023-05-16T01:36:06.536Z,8.70
2023-05-16T01:39:15.230Z,9.63
2023-05-16T01:42:21.035Z,8.93
2023-05-16T01:45:27.963Z,9.27
2023-05-16T01:48:35.911Z,8.87
2023-05-16T01:51:40.957Z,8.52
2023-05-16T01:54:45.375Z,9.35
2023-05-16T01:57:49.785Z,8.43
2023-05-16T02:00:52.843Z,8.38
2023-05-16T02:03:54.461Z,8.20
2023-05-16T02:06:56.687Z,8.50
2023-05-16T02:09:58.084Z,9.02
2023-05-16T02:13:00.032Z,8.88
2023-05-16T02:16:01.518Z,9.07
2023-05-16T02:19:02.814Z,8.20
2023-05-16T02:22:04.610Z,9.45
2023-05-16T02:25:06.915Z,8.80
2023-05-16T02:28:08.876Z,10.27
2023-05-16T02:31:10.374Z,10.20
2023-05-16T02:34:11.741Z,9.27
2023-05-16T02:37:13.431Z,9.75
2023-05-16T02:40:15.137Z,9.13
2023-05-16T02:43:17.199Z,9.80
2023-05-16T02:46:23.304Z,10.52
2023-05-16T02:49:24.690Z,9.70
2023-05-16T02:52:26.188Z,10.35
2023-05-16T02:55:27.916Z,10.48
2023-05-16T02:58:29.902Z,10.73
2023-05-16T03:01:31.325Z,10.20
2023-05-16T03:04:32.815Z,9.30
2023-05-16T03:07:34.260Z,11.13
2023-05-16T03:10:35.627Z,9.18
2023-05-16T03:13:37.678Z,9.18
2023-05-16T03:16:41.046Z,10.02
2023-05-16T03:19:42.373Z,10.23
2023-05-16T03:22:44.589Z,9.55
2023-05-16T03:25:46.009Z,10.75
2023-05-16T03:28:48.179Z,8.93
2023-05-16T03:31:49.678Z,10.20
2023-05-16T03:34:51.860Z,10.47
2023-05-16T03:37:53.439Z,11.35
2023-05-16T03:40:54.723Z,11.05
2023-05-16T03:43:56.781Z,9.90
2023-05-16T03:46:58.223Z,11.45
2023-05-16T03:49:59.614Z,10.77
2023-05-16T03:53:01.019Z,10.93
2023-05-16T03:56:03.314Z,11.60
2023-05-16T03:59:05.378Z,10.73
2023-05-16T04:02:07.405Z,10.07
2023-05-16T04:05:09.722Z,10.80
2023-05-16T04:08:11.221Z,11.50
2023-05-16T04:11:12.525Z,10.77
2023-05-16T04:14:14.906Z,11.00
2023-05-16T04:17:16.188Z,10.43
2023-05-16T04:20:17.640Z,10.67
2023-05-16T04:23:19.076Z,10.75
2023-05-16T04:26:21.780Z,10.27
2023-05-16T04:29:23.841Z,10.18
2023-05-16T04:32:25.318Z,11.20
2023-05-16T04:35:28.052Z,10.73
2023-05-16T04:38:29.656Z,10.07
2023-05-16T04:41:31.136Z,10.55
2023-05-16T04:44:33.823Z,10.25
2023-05-16T04:47:36.026Z,9.85
2023-05-16T04:50:37.452Z,10.30
2023-05-16T04:53:38.717Z,9.48
2023-05-16T04:56:40.094Z,10.18
2023-05-16T04:59:42.314Z,9.27
2023-05-16T05:02:44.022Z,9.87
2023-05-16T05:05:45.744Z,10.15
2023-05-16T05:08:47.256Z,9.57
2023-05-16T05:11:48.568Z,8.43
2023-05-16T05:14:50.714Z,8.30
2023-05-16T05:17:52.257Z,7.32
2023-05-16T05:20:53.892Z,7.35
2023-05-16T05:23:55.194Z,7.20
2023-05-16T05:26:57.143Z,8.57
2023-05-16T05:29:59.178Z,8.35
2023-05-16T05:33:00.648Z,9.15
2023-05-16T05:36:03.973Z,8.63
2023-05-16T05:39:06.201Z,8.60
2023-05-16T05:42:07.784Z,8.33
2023-05-16T05:45:11.091Z,8.05
2023-05-16T05:48:12.701Z,8.02
2023-05-16T05:51:14.356Z,8.13
2023-05-16T05:54:15.751Z,7.97
2023-05-16T05:57:17.112Z,6.63
2023-05-16T06:00:19.589Z,7.50
2023-05-16T06:03:20.952Z,6.65
2023-05-16T06:06:22.437Z,7.10
2023-05-16T06:09:23.745Z,7.20
2023-05-16T06:12:25.140Z,7.63
2023-05-16T06:15:27.351Z,6.90
2023-05-16T06:18:29.199Z,6.65
2023-05-16T06:21:30.544Z,5.80
2023-05-16T06:24:31.904Z,6.57
2023-05-16T06:27:33.367Z,6.60
2023-05-16T06:30:35.532Z,6.43
2023-05-16T06:33:36.810Z,6.82
2023-05-16T06:36:38.352Z,5.55
2023-05-16T06:39:39.653Z,5.93
2023-05-16T06:42:41.129Z,5.53
2023-05-16T06:45:44.436Z,5.47
2023-05-16T06:48:45.765Z,5.70
2023-05-16T06:51:47.091Z,4.80
2023-05-16T06:54:48.454Z,5.33
2023-05-16T06:57:49.829Z,4.67
2023-05-16T07:00:51.960Z,3.95
2023-05-16T07:03:53.672Z,4.53
2023-05-16T07:06:55.243Z,4.00
2023-05-16T07:09:56.564Z,4.10
2023-05-16T07:12:58.091Z,3.40
2023-05-16T07:16:00.286Z,3.38
2023-05-16T07:19:01.912Z,3.38
2023-05-16T07:22:03.658Z,3.47
2023-05-16T07:25:06.155Z,3.30
2023-05-16T07:28:07.590Z,2.90
2023-05-16T07:31:09.673Z,3.22
2023-05-16T07:34:11.474Z,3.28
2023-05-16T07:37:13.186Z,3.10
2023-05-16T07:40:14.567Z,3.37
2023-05-16T07:43:16.026Z,3.07
2023-05-16T07:46:18.043Z,2.88
2023-05-16T07:49:19.504Z,3.30
2023-05-16T07:52:20.844Z,2.63
2023-05-16T07:55:22.754Z,3.20
2023-05-16T07:58:24.285Z,2.97
2023-05-16T08:01:26.397Z,2.38
2023-05-16T08:04:28.466Z,2.20
2023-05-16T08:07:30.853Z,2.38
2023-05-16T08:10:32.427Z,2.63
2023-05-16T08:13:33.932Z,2.57
2023-05-16T08:16:36.279Z,2.30
2023-05-16T08:19:37.838Z,2.25
2023-05-16T08:22:39.336Z,2.20
2023-05-16T08:25:40.680Z,2.00
2023-05-16T08:28:42.666Z,2.00
2023-05-16T08:31:44.776Z,2.13
2023-05-16T08:34:46.316Z,2.00
2023-05-16T08:37:47.861Z,1.80
2023-05-16T08:40:49.240Z,1.80
2023-05-16T08:43:50.847Z,2.13
2023-05-16T08:46:54.390Z,1.52
2023-05-16T08:49:57.822Z,1.70
2023-05-16T08:53:06.592Z,1.33
2023-05-16T08:56:09.605Z,1.67
2023-05-16T08:59:11.913Z,1.60
2023-05-16T09:02:14.106Z,1.27
2023-05-16T09:05:16.855Z,4.68
2023-05-16T09:08:19.607Z,2.05
2023-05-16T09:11:21.295Z,1.57
2023-05-16T09:14:22.835Z,1.60
2023-05-16T09:17:38.684Z,1.40
2023-05-16T09:20:46.381Z,2.17
2023-05-16T09:23:49.172Z,1.75
2023-05-16T09:26:50.647Z,1.87
2023-05-16T09:29:51.992Z,1.50
2023-05-16T09:32:54.184Z,1.50
2023-05-16T09:35:57.111Z,2.30
2023-05-16T09:38:58.687Z,1.67
2023-05-16T09:42:00.138Z,1.63
2023-05-16T09:45:04.671Z,1.87
2023-05-16T09:48:08.377Z,1.83
2023-05-16T09:51:12.409Z,2.72
2023-05-16T09:54:13.936Z,2.17
2023-05-16T09:57:18.321Z,3.17
2023-05-16T10:00:20.099Z,2.20
2023-05-16T10:03:23.024Z,1.80
2023-05-16T10:06:25.658Z,1.98
2023-05-16T10:09:28.142Z,2.30
2023-05-16T10:12:31.421Z,2.60
2023-05-16T10:15:33.938Z,2.10
2023-05-16T10:18:37.852Z,1.90
2023-05-16T10:21:45.352Z,2.10
2023-05-16T10:24:51.650Z,2.15
2023-05-16T10:27:54.636Z,2.17
2023-05-16T10:30:56.895Z,2.17
2023-05-16T10:33:59.594Z,2.35
2023-05-16T10:37:01.807Z,2.70
2023-05-16T10:40:05.116Z,2.10
2023-05-16T10:43:08.132Z,2.07
2023-05-16T10:46:11.044Z,1.60
2023-05-16T10:49:24.041Z,1.88
2023-05-16T10:52:33.366Z,2.33
2023-05-16T10:55:36.062Z,2.05
2023-05-16T10:58:44.711Z,1.83
2023-05-16T11:01:52.592Z,2.07
2023-05-16T11:04:56.321Z,1.85
2023-05-16T11:08:04.263Z,2.20
2023-05-16T11:11:38.967Z,1.95
2023-05-16T11:14:42.729Z,2.33
2023-05-16T11:17:46.091Z,1.77
2023-05-16T11:20:52.103Z,2.05
2023-05-16T11:24:27.019Z,2.15
2023-05-16T11:27:30.245Z,2.08
2023-05-16T11:30:32.423Z,1.73
2023-05-16T11:33:35.622Z,2.20
2023-05-16T11:36:39.740Z,2.15
2023-05-16T11:39:41.333Z,2.17
2023-05-16T11:42:44.653Z,2.20
2023-05-16T11:45:46.740Z,2.10
2023-05-16T11:48:48.627Z,1.87
2023-05-16T11:51:53.814Z,1.52
2023-05-16T11:54:57.289Z,1.90
2023-05-16T11:57:59.245Z,1.77
2023-05-16T12:01:04.244Z,1.70
2023-05-16T12:04:09.096Z,1.80
2023-05-16T12:07:11.259Z,1.85
2023-05-16T12:10:14.328Z,1.80
2023-05-16T12:13:16.767Z,1.33
2023-05-16T12:16:18.725Z,1.50
2023-05-16T12:19:21.337Z,1.50
2023-05-16T12:22:25.546Z,1.77
2023-05-16T12:25:29.221Z,1.33
2023-05-16T12:28:33.349Z,1.42
2023-05-16T12:31:37.326Z,1.70
2023-05-16T12:34:38.718Z,1.33
2023-05-16T12:37:43.453Z,1.55
2023-05-16T12:40:46.100Z,1.40
2023-05-16T12:43:47.861Z,1.20
2023-05-16T12:46:51.226Z,1.30
2023-05-16T12:49:53.641Z,1.30
2023-05-16T12:53:00.910Z,1.25
2023-05-16T12:56:02.327Z,1.23
2023-05-16T12:59:03.642Z,1.30
2023-05-16T13:02:05.434Z,1.50
2023-05-16T13:05:07.444Z,1.50
2023-05-16T13:08:09.458Z,1.20
2023-05-16T13:11:10.835Z,1.40
2023-05-16T13:14:12.238Z,1.27
2023-05-16T13:17:13.556Z,1.20
2023-05-16T13:20:15.530Z,1.00
2023-05-16T13:23:17.755Z,1.95
2023-05-16T13:26:19.088Z,1.40
2023-05-16T13:29:20.659Z,1.10
2023-05-16T13:32:22.393Z,1.10
2023-05-16T13:35:23.730Z,1.20
2023-05-16T13:38:25.816Z,1.10
2023-05-16T13:41:27.143Z,1.10
2023-05-16T13:44:28.633Z,1.40
2023-05-16T13:47:30.468Z,1.20
2023-05-16T13:50:33.824Z,1.30
2023-05-16T13:53:36.286Z,1.00
2023-05-16T13:56:37.756Z,1.08
2023-05-16T14:00:05.663Z,1.13
2023-05-16T14:03:00.838Z,1.20
2023-05-16T14:06:02.236Z,1.27
2023-05-16T14:09:04.477Z,1.00
2023-05-16T14:12:07.079Z,0.90
2023-05-16T14:15:09.223Z,0.80
2023-05-16T14:18:10.782Z,0.70
2023-05-16T14:21:12.638Z,1.67
2023-05-16T14:24:14.830Z,1.15
2023-05-16T14:27:16.361Z,1.17
2023-05-16T14:30:17.901Z,0.90
2023-05-16T14:33:19.351Z,1.00
2023-05-16T14:36:20.801Z,0.90
2023-05-16T14:39:22.904Z,1.02
2023-05-16T14:42:24.366Z,0.80
2023-05-16T14:45:25.996Z,0.97
2023-05-16T14:48:27.677Z,0.90
2023-05-16T14:51:29.174Z,1.15
2023-05-16T14:54:31.300Z,0.80
2023-05-16T14:57:32.601Z,1.17
2023-05-16T15:00:33.965Z,0.73
2023-05-16T15:03:53.747Z,1.00
2023-05-16T15:06:56.512Z,0.88
2023-05-16T15:09:58.618Z,0.60
2023-05-16T15:12:59.980Z,0.88
2023-05-16T15:16:01.386Z,0.60
2023-05-16T15:19:03.098Z,0.80
2023-05-16T15:22:07.055Z,0.98
2023-05-16T15:25:10.344Z,0.95
2023-05-16T15:28:11.681Z,0.90
2023-05-16T15:31:13.488Z,0.60
2023-05-16T15:34:15.019Z,0.80
2023-05-16T15:37:17.184Z,1.00
2023-05-16T15:40:22.296Z,0.73
2023-05-16T15:43:26.357Z,2.05
2023-05-16T15:46:29.900Z,0.60
2023-05-16T15:49:31.401Z,0.75
2023-05-16T15:52:35.184Z,0.60
2023-05-16T15:55:38.478Z,0.60
2023-05-16T15:58:39.862Z,1.00
2023-05-16T16:01:41.397Z,0.60
2023-05-16T16:04:42.851Z,0.73
2023-05-16T16:07:44.635Z,0.82
2023-05-16T16:10:46.994Z,0.75
2023-05-16T16:13:48.718Z,0.80
2023-05-16T16:16:50.477Z,0.60
2023-05-16T16:19:52.190Z,0.73
2023-05-16T16:22:53.733Z,0.80
2023-05-16T16:25:55.842Z,0.90
2023-05-16T16:28:57.188Z,0.70
2023-05-16T16:31:58.830Z,0.50
2023-05-16T16:35:00.937Z,0.70
2023-05-16T16:38:07.105Z,0.70
2023-05-16T16:41:10.388Z,0.52
2023-05-16T16:44:13.133Z,0.40
2023-05-16T16:47:14.593Z,0.50
2023-05-16T16:50:16.032Z,0.70
2023-05-16T16:53:18.052Z,0.70
2023-05-16T16:56:20.907Z,0.70
2023-05-16T16:59:22.255Z,0.50
2023-05-16T17:02:23.640Z,0.80
2023-05-16T17:05:25.383Z,0.80
2023-05-16T17:08:26.886Z,0.70
2023-05-16T17:11:29.079Z,0.70
2023-05-16T17:14:30.783Z,0.70
2023-05-16T17:17:32.115Z,1.15
2023-05-16T17:20:33.709Z,0.80
2023-05-16T17:23:35.063Z,0.63
2023-05-16T17:26:37.158Z,1.08
2023-05-16T17:29:38.668Z,0.70
2023-05-16T17:32:40.100Z,0.80
2023-05-16T17:35:41.524Z,0.70
2023-05-16T17:38:42.843Z,0.57
2023-05-16T17:41:45.161Z,0.80
2023-05-16T17:44:46.739Z,0.87
2023-05-16T17:47:48.452Z,0.60
2023-05-16T17:50:49.863Z,0.70
2023-05-16T17:53:51.967Z,0.80
2023-05-16T17:56:54.496Z,0.80
2023-05-16T17:59:56.010Z,0.67
2023-05-16T18:02:57.577Z,0.88
2023-05-16T18:05:59.226Z,1.30
2023-05-16T18:09:01.121Z,1.10
2023-05-16T18:12:03.816Z,1.00
2023-05-16T18:15:06.422Z,1.00
2023-05-16T18:18:08.032Z,0.90
2023-05-16T18:21:09.492Z,0.70
2023-05-16T18:24:12.434Z,0.85
2023-05-16T18:27:15.401Z,0.88
2023-05-16T18:30:16.880Z,0.93
2023-05-16T18:33:18.296Z,0.57
2023-05-16T18:36:19.780Z,0.85
2023-05-16T18:39:21.310Z,1.00
2023-05-16T18:42:24.922Z,1.10
2023-05-16T18:45:26.585Z,0.90
2023-05-16T18:48:28.215Z,0.95
2023-05-16T18:51:30.150Z,1.35
2023-05-16T18:54:31.451Z,1.10
2023-05-16T18:57:34.125Z,0.73
2023-05-16T19:00:35.504Z,0.70
2023-05-16T19:03:36.969Z,1.05
2023-05-16T19:06:38.458Z,0.80
2023-05-16T19:09:39.768Z,1.10
2023-05-16T19:12:46.011Z,0.70
2023-05-16T19:15:47.340Z,0.80
2023-05-16T19:18:49.430Z,0.98
2023-05-16T19:21:51.130Z,0.73
2023-05-16T19:24:52.580Z,0.80
2023-05-16T19:27:54.751Z,0.80
2023-05-16T19:30:56.388Z,0.93
2023-05-16T19:33:57.855Z,0.70
2023-05-16T19:37:03.198Z,1.30
2023-05-16T19:40:05.881Z,1.02
2023-05-16T19:43:08.567Z,0.95
2023-05-16T19:46:10.586Z,1.03
2023-05-16T19:49:12.249Z,1.10
2023-05-16T19:52:14.246Z,0.80
2023-05-16T19:55:16.075Z,1.13
2023-05-16T19:58:18.508Z,0.75
2023-05-16T20:01:20.228Z,1.00
2023-05-16T20:04:22.150Z,0.90
2023-05-16T20:07:23.636Z,0.70
2023-05-16T20:10:24.969Z,0.80
2023-05-16T20:13:27.094Z,0.70
2023-05-16T20:16:28.460Z,1.07
2023-05-16T20:19:29.959Z,0.63
2023-05-16T20:22:31.457Z,0.60
2023-05-16T20:25:32.811Z,0.98
2023-05-16T20:28:34.942Z,0.57
2023-05-16T20:31:36.311Z,0.80
2023-05-16T20:34:40.287Z,0.87
2023-05-16T20:37:42.907Z,0.85
2023-05-16T20:40:44.373Z,0.70
2023-05-16T20:43:46.508Z,0.80
2023-05-16T20:46:47.855Z,0.83
2023-05-16T20:49:49.304Z,0.70
2023-05-16T20:52:50.701Z,0.73
2023-05-16T20:55:52.224Z,0.80
2023-05-16T20:58:54.443Z,0.80
2023-05-16T21:01:56.679Z,0.77
2023-05-16T21:05:02.234Z,0.97
2023-05-16T21:08:11.759Z,0.85
2023-05-16T21:11:13.226Z,0.60
2023-05-16T21:14:15.436Z,0.63
2023-05-16T21:17:16.852Z,1.00
2023-05-16T21:20:18.433Z,0.87
2023-05-16T21:23:20.178Z,1.00
2023-05-16T21:26:21.581Z,0.75
2023-05-16T21:29:23.682Z,0.80
2023-05-16T21:32:27.522Z,0.80
2023-05-16T21:35:29.331Z,0.90
2023-05-16T21:38:30.926Z,0.82
2023-05-16T21:41:32.402Z,0.85
2023-05-16T21:44:34.551Z,0.73
2023-05-16T21:47:36.085Z,1.13
2023-05-16T21:50:37.647Z,0.97
2023-05-16T21:53:39.004Z,0.70
2023-05-16T21:56:40.525Z,1.00
2023-05-16T21:59:42.466Z,0.90
2023-05-16T22:02:44.477Z,0.90
2023-05-16T22:05:46.387Z,0.90
2023-05-16T22:08:47.832Z,0.85
2023-05-16T22:11:49.199Z,1.00
2023-05-16T22:14:51.352Z,0.70
2023-05-16T22:17:52.736Z,0.90
2023-05-16T22:20:54.223Z,0.98
2023-05-16T22:23:55.602Z,0.90
2023-05-16T22:26:57.047Z,0.63
2023-05-16T22:29:59.039Z,0.70
2023-05-16T22:33:00.730Z,0.90
2023-05-16T22:36:02.644Z,0.70
2023-05-16T22:39:04.141Z,0.90
2023-05-16T22:42:06.111Z,0.90
2023-05-16T22:45:08.825Z,0.90
2023-05-16T22:48:10.435Z,0.93
2023-05-16T22:51:11.926Z,0.80
2023-05-16T22:54:13.411Z,0.75
2023-05-16T22:57:14.815Z,1.03
2023-05-16T23:00:22.089Z,1.00
2023-05-16T23:03:23.622Z,1.08
2023-05-16T23:06:25.161Z,0.82
2023-05-16T23:09:26.685Z,1.10
2023-05-16T23:12:28.118Z,0.77
2023-05-16T23:15:30.469Z,0.98
2023-05-16T23:18:32.156Z,0.90
2023-05-16T23:21:33.762Z,0.70
2023-05-16T23:24:35.076Z,1.13
2023-05-16T23:27:36.523Z,0.93
2023-05-16T23:30:38.641Z,0.90
2023-05-16T23:33:39.968Z,1.35
2023-05-16T23:36:41.306Z,0.80
2023-05-16T23:39:42.767Z,1.30
2023-05-16T23:42:44.362Z,0.90
2023-05-16T23:45:46.632Z,1.00
2023-05-16T23:48:48.194Z,1.03
2023-05-16T23:51:57.259Z,0.97
2023-05-16T23:54:59.625Z,1.05
2023-05-16T23:58:01.073Z,1.40
